Terminal Aerodrome Forecast
Issued by NWS South Bend, IN

Home | Current Version | Previous Version | Text Only | Print | Product List | Glossary On
Versions: 1 2 3 4 5 6 7 8 9 10 11 12
000
FTUS43 KIWX 031100
TAFSBN
TAF
KSBN 031120Z 0312/0412 20008KT P6SM SCT100 BKN250
     FM031600 19014G22KT P6SM BKN080
     FM040000 18012KT P6SM SCT250
     FM041000 20012KT P6SM BKN060=

USA.gov is the U.S. government's official web portal to all federal, state and local government web resources and services.